sensor_id;sensor_type;location;lat;lon;timestamp;pressure;altitude;pressure_sealevel;temperature;humidity
29505;BME280;16452;54.174;12.092;2023-01-26T00:01:19;102310.78;;;1.66;100.00
29505;BME280;16452;54.174;12.092;2023-01-26T00:03:45;102316.91;;;1.80;100.00
29505;BME280;16452;54.174;12.092;2023-01-26T00:06:14;102306.78;;;1.97;100.00
29505;BME280;16452;54.174;12.092;2023-01-26T00:08:49;102301.38;;;1.68;100.00
29505;BME280;16452;54.174;12.092;2023-01-26T00:11:19;102297.16;;;1.73;100.00
29505;BME280;16452;54.174;12.092;2023-01-26T00:13:49;102296.44;;;1.94;100.00
29505;BME280;16452;54.174;12.092;2023-01-26T00:16:15;102294.78;;;1.97;100.00
29505;BME280;16452;54.174;12.092;2023-01-26T00:18:42;102291.34;;;1.97;100.00
29505;BME280;16452;54.174;12.092;2023-01-26T00:21:16;102285.22;;;1.83;100.00
29505;BME280;16452;54.174;12.092;2023-01-26T00:23:42;102284.34;;;1.79;100.00
29505;BME280;16452;54.174;12.092;2023-01-26T00:26:15;102281.25;;;2.21;100.00
29505;BME280;16452;54.174;12.092;2023-01-26T00:28:41;102286.34;;;2.15;100.00
29505;BME280;16452;54.174;12.092;2023-01-26T00:31:14;102288.03;;;2.09;100.00
29505;BME280;16452;54.174;12.092;2023-01-26T00:33:40;102288.81;;;2.01;100.00
29505;BME280;16452;54.174;12.092;2023-01-26T00:36:07;102277.50;;;1.80;100.00
29505;BME280;16452;54.174;12.092;2023-01-26T00:38:33;102280.22;;;1.96;100.00
29505;BME280;16452;54.174;12.092;2023-01-26T00:40:58;102271.66;;;1.97;100.00
29505;BME280;16452;54.174;12.092;2023-01-26T00:43:24;102281.00;;;1.92;100.00
29505;BME280;16452;54.174;12.092;2023-01-26T00:45:50;102269.91;;;1.95;100.00
29505;BME280;16452;54.174;12.092;2023-01-26T00:48:16;102274.13;;;1.85;100.00
29505;BME280;16452;54.174;12.092;2023-01-26T00:50:42;102270.63;;;1.74;100.00
29505;BME280;16452;54.174;12.092;2023-01-26T00:53:08;102273.41;;;2.01;100.00
29505;BME280;16452;54.174;12.092;2023-01-26T00:55:34;102276.69;;;1.85;100.00
29505;BME280;16452;54.174;12.092;2023-01-26T00:58:02;102267.25;;;1.83;100.00
29505;BME280;16452;54.174;12.092;2023-01-26T01:00:29;102266.06;;;1.44;100.00
29505;BME280;16452;54.174;12.092;2023-01-26T01:02:55;102262.72;;;1.54;100.00
29505;BME280;16452;54.174;12.092;2023-01-26T01:05:23;102267.19;;;1.74;100.00
29505;BME280;16452;54.174;12.092;2023-01-26T01:07:50;102266.22;;;1.61;100.00
29505;BME280;16452;54.174;12.092;2023-01-26T01:10:16;102258.03;;;2.11;100.00
29505;BME280;16452;54.174;12.092;2023-01-26T01:12:42;102261.22;;;1.81;100.00
29505;BME280;16452;54.174;12.092;2023-01-26T01:15:08;102268.81;;;1.65;100.00
29505;BME280;16452;54.174;12.092;2023-01-26T01:17:34;102264.72;;;1.87;100.00
29505;BME280;16452;54.174;12.092;2023-01-26T01:20:05;102272.34;;;1.78;100.00
29505;BME280;16452;54.174;12.092;2023-01-26T01:22:35;102260.19;;;1.59;100.00
29505;BME280;16452;54.174;12.092;2023-01-26T01:25:02;102262.88;;;1.68;100.00
29505;BME280;16452;54.174;12.092;2023-01-26T01:27:28;102262.88;;;1.68;100.00
29505;BME280;16452;54.174;12.092;2023-01-26T01:29:53;102258.41;;;1.49;100.00
29505;BME280;16452;54.174;12.092;2023-01-26T01:32:19;102264.50;;;1.61;100.00
29505;BME280;16452;54.174;12.092;2023-01-26T01:34:48;102255.91;;;1.58;100.00
29505;BME280;16452;54.174;12.092;2023-01-26T01:37:16;102252.75;;;1.89;100.00
29505;BME280;16452;54.174;12.092;2023-01-26T01:39:42;102247.56;;;1.80;100.00
29505;BME280;16452;54.174;12.092;2023-01-26T01:42:08;102235.16;;;1.32;100.00
29505;BME280;16452;54.174;12.092;2023-01-26T01:44:35;102238.91;;;1.75;100.00
29505;BME280;16452;54.174;12.092;2023-01-26T01:47:23;102231.19;;;1.71;100.00
29505;BME280;16452;54.174;12.092;2023-01-26T01:49:52;102230.50;;;1.91;100.00
29505;BME280;16452;54.174;12.092;2023-01-26T01:52:25;102233.66;;;1.55;100.00
29505;BME280;16452;54.174;12.092;2023-01-26T01:55:05;102230.19;;;1.53;100.00
29505;BME280;16452;54.174;12.092;2023-01-26T01:57:47;102230.25;;;1.61;100.00
29505;BME280;16452;54.174;12.092;2023-01-26T02:00:19;102232.13;;;1.79;100.00
29505;BME280;16452;54.174;12.092;2023-01-26T02:03:03;102239.84;;;1.80;100.00
29505;BME280;16452;54.174;12.092;2023-01-26T02:05:47;102235.59;;;1.88;100.00
29505;BME280;16452;54.174;12.092;2023-01-26T02:08:17;102232.28;;;2.04;100.00
29505;BME280;16452;54.174;12.092;2023-01-26T02:10:48;102221.13;;;1.98;100.00
29505;BME280;16452;54.174;12.092;2023-01-26T02:13:17;102219.38;;;1.91;100.00
29505;BME280;16452;54.174;12.092;2023-01-26T02:15:43;102218.50;;;1.93;100.00
29505;BME280;16452;54.174;12.092;2023-01-26T02:18:09;102213.13;;;1.57;100.00
29505;BME280;16452;54.174;12.092;2023-01-26T02:20:46;102209.09;;;1.91;100.00
29505;BME280;16452;54.174;12.092;2023-01-26T02:23:31;102211.69;;;1.97;100.00
29505;BME280;16452;54.174;12.092;2023-01-26T02:26:26;102201.50;;;2.12;100.00
29505;BME280;16452;54.174;12.092;2023-01-26T02:28:53;102188.72;;;2.24;100.00
29505;BME280;16452;54.174;12.092;2023-01-26T02:31:22;102186.69;;;1.72;100.00
29505;BME280;16452;54.174;12.092;2023-01-26T02:33:48;102190.69;;;1.36;100.00
29505;BME280;16452;54.174;12.092;2023-01-26T02:36:24;102183.28;;;1.73;100.00
29505;BME280;16452;54.174;12.092;2023-01-26T02:41:38;102183.25;;;1.71;100.00
29505;BME280;16452;54.174;12.092;2023-01-26T02:44:22;102183.38;;;1.89;100.00
29505;BME280;16452;54.174;12.092;2023-01-26T02:46:48;102179.03;;;1.79;100.00
29505;BME280;16452;54.174;12.092;2023-01-26T02:49:14;102176.47;;;1.82;100.00
29505;BME280;16452;54.174;12.092;2023-01-26T02:51:58;102186.69;;;1.72;100.00
29505;BME280;16452;54.174;12.092;2023-01-26T02:54:24;102183.28;;;1.73;100.00
29505;BME280;16452;54.174;12.092;2023-01-26T02:57:08;102189.28;;;1.76;100.00
29505;BME280;16452;54.174;12.092;2023-01-26T02:59:34;102186.66;;;1.67;100.00
29505;BME280;16452;54.174;12.092;2023-01-26T03:01:59;102178.94;;;1.62;100.00
29505;BME280;16452;54.174;12.092;2023-01-26T03:04:27;102178.97;;;1.69;100.00
29505;BME280;16452;54.174;12.092;2023-01-26T03:06:53;102175.66;;;1.86;100.00
29505;BME280;16452;54.174;12.092;2023-01-26T03:09:19;102179.81;;;1.68;100.00
29505;BME280;16452;54.174;12.092;2023-01-26T03:11:50;102179.94;;;1.87;100.00
29505;BME280;16452;54.174;12.092;2023-01-26T03:14:16;102166.31;;;2.00;100.00
29505;BME280;16452;54.174;12.092;2023-01-26T03:16:42;102160.34;;;2.04;100.00
29505;BME280;16452;54.174;12.092;2023-01-26T03:19:12;102161.88;;;1.74;100.00
29505;BME280;16452;54.174;12.092;2023-01-26T03:21:58;102167.78;;;1.62;100.00
29505;BME280;16452;54.174;12.092;2023-01-26T03:24:42;102167.03;;;1.78;100.00
29505;BME280;16452;54.174;12.092;2023-01-26T03:27:30;102176.47;;;1.82;100.00
29505;BME280;16452;54.174;12.092;2023-01-26T03:29:58;102171.19;;;1.56;100.00
29505;BME280;16452;54.174;12.092;2023-01-26T03:32:24;102167.66;;;1.47;100.00
29505;BME280;16452;54.174;12.092;2023-01-26T03:34:50;102174.47;;;1.42;100.00
29505;BME280;16452;54.174;12.092;2023-01-26T03:37:16;102168.63;;;1.61;100.00
29505;BME280;16452;54.174;12.092;2023-01-26T03:39:48;102171.28;;;1.73;100.00
29505;BME280;16452;54.174;12.092;2023-01-26T03:42:34;102164.28;;;1.52;100.00
29505;BME280;16452;54.174;12.092;2023-01-26T03:45:19;102161.06;;;1.82;100.00
29505;BME280;16452;54.174;12.092;2023-01-26T03:48:06;102162.09;;;2.12;100.00
29505;BME280;16452;54.174;12.092;2023-01-26T03:50:51;102166.25;;;1.85;100.00
29505;BME280;16452;54.174;12.092;2023-01-26T03:53:35;102157.66;;;1.85;100.00
29505;BME280;16452;54.174;12.092;2023-01-26T03:56:20;102162.84;;;1.94;100.00
29505;BME280;16452;54.174;12.092;2023-01-26T03:59:01;102150.97;;;2.13;100.00
29505;BME280;16452;54.174;12.092;2023-01-26T04:01:44;102154.44;;;2.24;100.00
29505;BME280;16452;54.174;12.092;2023-01-26T04:04:29;102158.47;;;1.78;100.00
29505;BME280;16452;54.174;12.092;2023-01-26T04:07:13;102156.06;;;2.02;100.00
29505;BME280;16452;54.174;12.092;2023-01-26T04:09:57;102160.38;;;2.09;100.00
29505;BME280;16452;54.174;12.092;2023-01-26T04:12:22;102164.69;;;2.18;100.00
29505;BME280;16452;54.174;12.092;2023-01-26T04:14:48;102162.16;;;2.28;100.00
29505;BME280;16452;54.174;12.092;2023-01-26T04:17:33;102150.25;;;2.48;100.00
29505;BME280;16452;54.174;12.092;2023-01-26T04:20:17;102145.88;;;2.28;100.00
29505;BME280;16452;54.174;12.092;2023-01-26T04:23:01;102154.47;;;2.34;100.00
29505;BME280;16452;54.174;12.092;2023-01-26T04:25:27;102140.03;;;2.65;100.00
29505;BME280;16452;54.174;12.092;2023-01-26T04:27:52;102138.22;;;2.37;100.00
29505;BME280;16452;54.174;12.092;2023-01-26T04:30:18;102145.13;;;2.58;100.00
29505;BME280;16452;54.174;12.092;2023-01-26T04:32:45;102145.91;;;2.31;100.00
29505;BME280;16452;54.174;12.092;2023-01-26T04:35:11;102143.28;;;2.17;100.00
29505;BME280;16452;54.174;12.092;2023-01-26T04:37:38;102135.69;;;2.51;100.00
29505;BME280;16452;54.174;12.092;2023-01-26T04:40:05;102126.09;;;2.07;100.00
29505;BME280;16452;54.174;12.092;2023-01-26T04:42:31;102119.34;;;2.26;100.00
29505;BME280;16452;54.174;12.092;2023-01-26T04:44:57;102126.00;;;1.86;100.00
29505;BME280;16452;54.174;12.092;2023-01-26T04:47:23;102120.09;;;2.02;100.00
29505;BME280;16452;54.174;12.092;2023-01-26T04:49:48;102124.28;;;1.88;100.00
29505;BME280;16452;54.174;12.092;2023-01-26T04:52:14;102122.66;;;2.02;100.00
29505;BME280;16452;54.174;12.092;2023-01-26T04:54:40;102124.31;;;1.91;100.00
29505;BME280;16452;54.174;12.092;2023-01-26T04:57:07;102110.66;;;2.01;100.00
29505;BME280;16452;54.174;12.092;2023-01-26T04:59:33;102129.44;;;1.89;100.00
29505;BME280;16452;54.174;12.092;2023-01-26T05:01:59;102112.22;;;1.72;100.00
29505;BME280;16452;54.174;12.092;2023-01-26T05:04:25;102125.94;;;1.74;100.00
29505;BME280;16452;54.174;12.092;2023-01-26T05:06:50;102117.47;;;1.96;100.00
29505;BME280;16452;54.174;12.092;2023-01-26T05:09:16;102124.31;;;1.94;100.00
29505;BME280;16452;54.174;12.092;2023-01-26T05:11:42;102120.09;;;2.02;100.00
29505;BME280;16452;54.174;12.092;2023-01-26T05:14:07;102129.41;;;1.88;100.00
29505;BME280;16452;54.174;12.092;2023-01-26T05:16:33;102119.94;;;1.81;100.00
29505;BME280;16452;54.174;12.092;2023-01-26T05:18:59;102117.44;;;1.90;100.00
29505;BME280;16452;54.174;12.092;2023-01-26T05:21:25;102114.09;;;2.06;100.00
29505;BME280;16452;54.174;12.092;2023-01-26T05:23:53;102122.72;;;2.19;100.00
29505;BME280;16452;54.174;12.092;2023-01-26T05:26:19;102126.19;;;2.30;100.00
29505;BME280;16452;54.174;12.092;2023-01-26T05:28:45;102124.31;;;1.91;100.00
29505;BME280;16452;54.174;12.092;2023-01-26T05:31:11;102116.59;;;1.94;100.00
29505;BME280;16452;54.174;12.092;2023-01-26T05:33:36;102108.94;;;1.97;100.00
29505;BME280;16452;54.174;12.092;2023-01-26T05:36:05;102109.81;;;2.03;100.00
29505;BME280;16452;54.174;12.092;2023-01-26T05:38:32;102118.44;;;2.22;100.00
29505;BME280;16452;54.174;12.092;2023-01-26T05:40:58;102125.16;;;1.93;100.00
29505;BME280;16452;54.174;12.092;2023-01-26T05:43:24;102131.25;;;2.07;100.00
29505;BME280;16452;54.174;12.092;2023-01-26T05:45:51;102135.63;;;2.26;100.00
29505;BME280;16452;54.174;12.092;2023-01-26T05:48:17;102138.03;;;1.91;100.00
29505;BME280;16452;54.174;12.092;2023-01-26T05:50:43;102128.69;;;2.16;100.00
29505;BME280;16452;54.174;12.092;2023-01-26T05:53:09;102124.44;;;2.20;100.00
29505;BME280;16452;54.174;12.092;2023-01-26T05:55:34;102127.69;;;1.82;100.00
29505;BME280;16452;54.174;12.092;2023-01-26T05:58:00;102124.41;;;2.09;100.00
29505;BME280;16452;54.174;12.092;2023-01-26T06:00:32;102124.50;;;2.35;100.00
29505;BME280;16452;54.174;12.092;2023-01-26T06:02:57;102123.53;;;2.07;100.00
29505;BME280;16452;54.174;12.092;2023-01-26T06:05:23;102133.75;;;1.95;100.00
29505;BME280;16452;54.174;12.092;2023-01-26T06:07:49;102130.47;;;2.29;100.00
29505;BME280;16452;54.174;12.092;2023-01-26T06:10:15;102123.69;;;2.48;100.00
29505;BME280;16452;54.174;12.092;2023-01-26T06:12:41;102124.50;;;2.41;100.00
29505;BME280;16452;54.174;12.092;2023-01-26T06:15:08;102127.81;;;2.06;100.00
29505;BME280;16452;54.174;12.092;2023-01-26T06:17:34;102128.75;;;2.21;100.00
29505;BME280;16452;54.174;12.092;2023-01-26T06:19:59;102132.16;;;2.15;100.00
29505;BME280;16452;54.174;12.092;2023-01-26T06:22:25;102132.22;;;2.39;100.00
29505;BME280;16452;54.174;12.092;2023-01-26T06:24:51;102139.06;;;2.34;100.00
29505;BME280;16452;54.174;12.092;2023-01-26T06:27:17;102140.78;;;2.37;100.00
29505;BME280;16452;54.174;12.092;2023-01-26T06:29:43;102135.53;;;2.11;100.00
29505;BME280;16452;54.174;12.092;2023-01-26T06:32:11;102139.72;;;1.91;100.00
29505;BME280;16452;54.174;12.092;2023-01-26T06:34:37;102129.50;;;2.06;100.00
29505;BME280;16452;54.174;12.092;2023-01-26T06:37:03;102142.34;;;2.04;100.00
29505;BME280;16452;54.174;12.092;2023-01-26T06:39:29;102140.66;;;2.08;100.00
29505;BME280;16452;54.174;12.092;2023-01-26T06:41:54;102138.03;;;1.94;100.00
29505;BME280;16452;54.174;12.092;2023-01-26T06:44:20;102137.25;;;2.09;100.00
29505;BME280;16452;54.174;12.092;2023-01-26T06:46:46;102144.16;;;2.21;100.00
29505;BME280;16452;54.174;12.092;2023-01-26T06:49:12;102141.63;;;2.30;100.00
29505;BME280;16452;54.174;12.092;2023-01-26T06:51:51;102138.22;;;2.41;100.00
29505;BME280;16452;54.174;12.092;2023-01-26T06:54:19;102131.41;;;2.43;100.00
29505;BME280;16452;54.174;12.092;2023-01-26T06:56:44;102138.25;;;2.46;100.00
29505;BME280;16452;54.174;12.092;2023-01-26T06:59:10;102132.22;;;2.38;100.00
29505;BME280;16452;54.174;12.092;2023-01-26T07:01:43;102135.75;;;2.67;100.00
29505;BME280;16452;54.174;12.092;2023-01-26T07:04:09;102141.78;;;2.81;100.00
29505;BME280;16452;54.174;12.092;2023-01-26T07:06:35;102145.13;;;2.55;100.00
29505;BME280;16452;54.174;12.092;2023-01-26T07:09:01;102150.16;;;2.21;100.00
29505;BME280;16452;54.174;12.092;2023-01-26T07:11:27;102147.69;;;2.52;100.00
29505;BME280;16452;54.174;12.092;2023-01-26T07:13:55;102156.13;;;2.17;100.00
29505;BME280;16452;54.174;12.092;2023-01-26T07:16:21;102151.09;;;2.46;100.00
29505;BME280;16452;54.174;12.092;2023-01-26T07:18:47;102158.56;;;1.90;100.00
29505;BME280;16452;54.174;12.092;2023-01-26T07:21:16;102151.81;;;2.09;100.00
29505;BME280;16452;54.174;12.092;2023-01-26T07:23:45;102153.53;;;2.10;100.00
29505;BME280;16452;54.174;12.092;2023-01-26T07:26:12;102148.47;;;2.29;100.00
29505;BME280;16452;54.174;12.092;2023-01-26T07:28:38;102147.66;;;2.36;100.00
29505;BME280;16452;54.174;12.092;2023-01-26T07:31:06;102140.84;;;2.49;100.00
29505;BME280;16452;54.174;12.092;2023-01-26T07:33:33;102137.31;;;2.29;100.00
29505;BME280;16452;54.174;12.092;2023-01-26T07:36:00;102140.81;;;2.38;100.00
29505;BME280;16452;54.174;12.092;2023-01-26T07:38:27;102139.13;;;2.48;100.00
29505;BME280;16452;54.174;12.092;2023-01-26T07:40:54;102135.75;;;2.66;100.00
29505;BME280;16452;54.174;12.092;2023-01-26T07:43:20;102141.75;;;2.80;100.00
29505;BME280;16452;54.174;12.092;2023-01-26T07:45:48;102145.19;;;2.76;100.00
29505;BME280;16452;54.174;12.092;2023-01-26T07:48:19;102147.75;;;2.73;100.00
29505;BME280;16452;54.174;12.092;2023-01-26T07:50:45;102152.03;;;2.75;100.00
29505;BME280;16452;54.174;12.092;2023-01-26T07:53:16;102157.25;;;2.95;100.00
29505;BME280;16452;54.174;12.092;2023-01-26T07:55:44;102156.31;;;2.64;100.00
29505;BME280;16452;54.174;12.092;2023-01-26T07:58:11;102154.50;;;2.45;100.00
29505;BME280;16452;54.174;12.092;2023-01-26T08:00:37;102142.63;;;2.73;100.00
29505;BME280;16452;54.174;12.092;2023-01-26T08:03:03;102141.75;;;2.80;100.00
29505;BME280;16452;54.174;12.092;2023-01-26T08:05:30;102139.19;;;2.83;100.00
29505;BME280;16452;54.174;12.092;2023-01-26T08:07:59;102140.94;;;2.88;100.00
29505;BME280;16452;54.174;12.092;2023-01-26T08:10:26;102140.88;;;2.75;100.00
29505;BME280;16452;54.174;12.092;2023-01-26T08:12:52;102147.75;;;2.74;100.00
29505;BME280;16452;54.174;12.092;2023-01-26T08:15:18;102146.06;;;2.79;100.00
29505;BME280;16452;54.174;12.092;2023-01-26T08:17:44;102152.06;;;2.83;100.00
29505;BME280;16452;54.174;12.092;2023-01-26T08:20:10;102147.81;;;3.06;100.00
29505;BME280;16452;54.174;12.092;2023-01-26T08:22:36;102156.38;;;3.10;100.00
29505;BME280;16452;54.174;12.092;2023-01-26T08:25:02;102158.13;;;3.18;100.00
29505;BME280;16452;54.174;12.092;2023-01-26T08:27:28;102150.38;;;3.03;100.00
29505;BME280;16452;54.174;12.092;2023-01-26T08:29:54;102150.34;;;2.97;100.00
29505;BME280;16452;54.174;12.092;2023-01-26T08:32:20;102158.09;;;2.96;100.00
29505;BME280;16452;54.174;12.092;2023-01-26T08:34:46;102156.38;;;2.84;100.00
29505;BME280;16452;54.174;12.092;2023-01-26T08:37:12;102158.13;;;3.02;100.00
29505;BME280;16452;54.174;12.092;2023-01-26T08:39:38;102156.34;;;2.82;100.00
29505;BME280;16452;54.174;12.092;2023-01-26T08:42:03;102151.22;;;2.84;100.00
29505;BME280;16452;54.174;12.092;2023-01-26T08:44:29;102148.66;;;3.05;100.00
29505;BME280;16452;54.174;12.092;2023-01-26T08:46:55;102152.97;;;3.00;100.00
29505;BME280;16452;54.174;12.092;2023-01-26T08:49:23;102158.94;;;2.92;100.00
29505;BME280;16452;54.174;12.092;2023-01-26T08:51:49;102158.88;;;2.60;100.00
29505;BME280;16452;54.174;12.092;2023-01-26T08:54:15;102159.75;;;2.80;100.00
29505;BME280;16452;54.174;12.092;2023-01-26T08:56:40;102146.06;;;2.87;100.00
29505;BME280;16452;54.174;12.092;2023-01-26T08:59:06;102146.09;;;3.10;100.00
29505;BME280;16452;54.174;12.092;2023-01-26T09:01:32;102148.69;;;3.13;100.00
29505;BME280;16452;54.174;12.092;2023-01-26T09:03:58;102143.53;;;3.25;100.00
29505;BME280;16452;54.174;12.092;2023-01-26T09:06:24;102149.53;;;3.24;100.00
29505;BME280;16452;54.174;12.092;2023-01-26T09:08:49;102148.69;;;3.13;100.00
29505;BME280;16452;54.174;12.092;2023-01-26T09:11:15;102152.97;;;3.14;100.00
29505;BME280;16452;54.174;12.092;2023-01-26T09:13:41;102153.84;;;3.40;100.00
29505;BME280;16452;54.174;12.092;2023-01-26T09:16:14;102149.53;;;3.18;100.00
29505;BME280;16452;54.174;12.092;2023-01-26T09:18:43;102152.03;;;2.71;100.00
29505;BME280;16452;54.174;12.092;2023-01-26T09:21:09;102149.53;;;2.91;100.00
29505;BME280;16452;54.174;12.092;2023-01-26T09:23:35;102156.38;;;2.99;100.00
29505;BME280;16452;54.174;12.092;2023-01-26T09:26:02;102157.25;;;3.07;100.00
29505;BME280;16452;54.174;12.092;2023-01-26T09:28:28;102152.09;;;3.01;100.00
29505;BME280;16452;54.174;12.092;2023-01-26T09:30:54;102150.41;;;3.18;100.00
29505;BME280;16452;54.174;12.092;2023-01-26T09:33:20;102152.97;;;3.23;100.00
29505;BME280;16452;54.174;12.092;2023-01-26T09:35:48;102146.09;;;3.26;100.00
29505;BME280;16452;54.174;12.092;2023-01-26T09:38:14;102143.53;;;3.22;100.00
29505;BME280;16452;54.174;12.092;2023-01-26T09:43:57;102148.69;;;3.08;100.00
29505;BME280;16452;54.174;12.092;2023-01-26T09:50:09;102138.38;;;3.11;100.00
29505;BME280;16452;54.174;12.092;2023-01-26T09:53:01;102128.09;;;3.29;100.00
29505;BME280;16452;54.174;12.092;2023-01-26T09:55:28;102132.34;;;2.83;100.00
29505;BME280;16452;54.174;12.092;2023-01-26T09:58:13;102136.69;;;3.32;100.00
29505;BME280;16452;54.174;12.092;2023-01-26T10:01:00;102125.50;;;3.60;100.00
29505;BME280;16452;54.174;12.092;2023-01-26T10:03:39;102115.19;;;3.28;100.00
29505;BME280;16452;54.174;12.092;2023-01-26T10:06:29;102122.06;;;3.40;100.00
29505;BME280;16452;54.174;12.092;2023-01-26T10:09:06;102128.88;;;3.82;100.00
29505;BME280;16452;54.174;12.092;2023-01-26T10:11:45;102118.53;;;3.94;100.00
29505;BME280;16452;54.174;12.092;2023-01-26T10:14:38;102128.84;;;3.91;100.00
29505;BME280;16452;54.174;12.092;2023-01-26T10:17:38;102124.50;;;4.05;100.00
29505;BME280;16452;54.174;12.092;2023-01-26T10:22:44;102128.03;;;3.77;100.00
29505;BME280;16452;54.174;12.092;2023-01-26T10:25:19;102120.34;;;3.66;100.00
29505;BME280;16452;54.174;12.092;2023-01-26T10:27:45;102119.47;;;3.65;100.00
29505;BME280;16452;54.174;12.092;2023-01-26T10:30:14;102115.09;;;3.92;100.00
29505;BME280;16452;54.174;12.092;2023-01-26T10:32:42;102103.06;;;3.92;100.00
29505;BME280;16452;54.174;12.092;2023-01-26T10:35:29;102108.13;;;4.13;100.00
29505;BME280;16452;54.174;12.092;2023-01-26T10:37:54;102100.50;;;3.86;100.00
29505;BME280;16452;54.174;12.092;2023-01-26T10:40:22;102101.44;;;3.50;100.00
29505;BME280;16452;54.174;12.092;2023-01-26T10:42:58;102105.69;;;3.76;100.00
29505;BME280;16452;54.174;12.092;2023-01-26T10:45:32;102094.53;;;3.84;100.00
29505;BME280;16452;54.174;12.092;2023-01-26T10:48:19;102106.59;;;3.58;100.00
29505;BME280;16452;54.174;12.092;2023-01-26T10:50:46;102105.72;;;3.63;100.00
29505;BME280;16452;54.174;12.092;2023-01-26T10:53:22;102100.44;;;4.06;100.00
29505;BME280;16452;54.174;12.092;2023-01-26T10:56:24;102088.47;;;3.94;100.00
29505;BME280;16452;54.174;12.092;2023-01-26T10:58:54;102088.34;;;4.20;100.00
29505;BME280;16452;54.174;12.092;2023-01-26T11:01:22;102075.50;;;4.09;100.00
29505;BME280;16452;54.174;12.092;2023-01-26T11:04:10;102083.25;;;4.12;100.00
29505;BME280;16452;54.174;12.092;2023-01-26T11:06:37;102074.56;;;4.27;100.00
29505;BME280;16452;54.174;12.092;2023-01-26T11:11:39;102081.44;;;4.30;100.00
29505;BME280;16452;54.174;12.092;2023-01-26T11:14:17;102075.38;;;4.32;100.00
29505;BME280;16452;54.174;12.092;2023-01-26T11:22:50;102067.75;;;4.19;100.00
29505;BME280;16452;54.174;12.092;2023-01-26T11:31:06;102078.66;;;4.62;100.00
29505;BME280;16452;54.174;12.092;2023-01-26T11:40:02;102072.59;;;4.67;100.00
29505;BME280;16452;54.174;12.092;2023-01-26T11:48:58;102053.63;;;4.74;100.00
29505;BME280;16452;54.174;12.092;2023-01-26T11:51:46;102047.72;;;4.57;100.00
29505;BME280;16452;54.174;12.092;2023-01-26T11:55:03;102048.50;;;4.71;100.00
29505;BME280;16452;54.174;12.092;2023-01-26T12:00:38;102038.91;;;4.87;100.00
29505;BME280;16452;54.174;12.092;2023-01-26T12:03:25;102043.44;;;4.59;100.00
29505;BME280;16452;54.174;12.092;2023-01-26T12:05:57;102037.31;;;4.66;100.00
29505;BME280;16452;54.174;12.092;2023-01-26T12:09:03;102031.31;;;4.67;100.00
29505;BME280;16452;54.174;12.092;2023-01-26T12:12:23;102027.78;;;4.79;100.00
29505;BME280;16452;54.174;12.092;2023-01-26T12:15:31;102029.44;;;4.84;100.00
29505;BME280;16452;54.174;12.092;2023-01-26T12:20:44;102015.00;;;4.62;100.00
29505;BME280;16452;54.174;12.092;2023-01-26T12:25:52;102006.44;;;4.55;100.00
29505;BME280;16452;54.174;12.092;2023-01-26T12:28:33;102012.47;;;4.56;100.00
29505;BME280;16452;54.174;12.092;2023-01-26T12:31:15;102009.75;;;4.73;100.00
29505;BME280;16452;54.174;12.092;2023-01-26T12:33:43;102010.91;;;4.35;100.00
29505;BME280;16452;54.174;12.092;2023-01-26T12:39:34;102007.97;;;4.82;100.00
29505;BME280;16452;54.174;12.092;2023-01-26T12:44:58;102000.19;;;4.87;100.00
29505;BME280;16452;54.174;12.092;2023-01-26T12:50:30;102005.25;;;4.97;100.00
29505;BME280;16452;54.174;12.092;2023-01-26T12:53:24;102000.81;;;5.10;100.00
29505;BME280;16452;54.174;12.092;2023-01-26T12:58:44;101990.50;;;5.09;100.00
29505;BME280;16452;54.174;12.092;2023-01-26T13:01:18;101982.00;;;4.99;100.00
29505;BME280;16452;54.174;12.092;2023-01-26T13:03:56;101981.84;;;5.16;100.00
29505;BME280;16452;54.174;12.092;2023-01-26T13:06:25;101975.97;;;5.00;100.00
29505;BME280;16452;54.174;12.092;2023-01-26T13:11:53;101985.09;;;5.34;100.00
29505;BME280;16452;54.174;12.092;2023-01-26T13:14:37;101974.09;;;5.14;100.00
29505;BME280;16452;54.174;12.092;2023-01-26T13:35:19;101995.38;;;5.37;100.00
29505;BME280;16452;54.174;12.092;2023-01-26T13:40:48;101998.06;;;6.03;100.00
29505;BME280;16452;54.174;12.092;2023-01-26T13:45:59;101988.72;;;5.93;100.00
29505;BME280;16452;54.174;12.092;2023-01-26T13:48:49;102001.81;;;5.76;100.00
29505;BME280;16452;54.174;12.092;2023-01-26T13:51:26;101994.03;;;5.79;100.00
29505;BME280;16452;54.174;12.092;2023-01-26T13:54:12;102001.13;;;5.59;100.00
29505;BME280;16452;54.174;12.092;2023-01-26T13:59:26;102008.22;;;5.44;100.00
29505;BME280;16452;54.174;12.092;2023-01-26T14:01:54;102012.47;;;5.49;100.00
29505;BME280;16452;54.174;12.092;2023-01-26T14:04:25;102012.47;;;5.48;100.00
29505;BME280;16452;54.174;12.092;2023-01-26T14:07:04;102024.56;;;5.47;100.00
29505;BME280;16452;54.174;12.092;2023-01-26T14:09:33;102030.34;;;5.67;100.00
29505;BME280;16452;54.174;12.092;2023-01-26T14:12:04;102031.34;;;5.56;100.00
29505;BME280;16452;54.174;12.092;2023-01-26T14:14:34;102033.94;;;5.57;100.00
29505;BME280;16452;54.174;12.092;2023-01-26T14:17:07;102038.25;;;5.54;100.00
29505;BME280;16452;54.174;12.092;2023-01-26T14:19:39;102039.22;;;5.47;100.00
29505;BME280;16452;54.174;12.092;2023-01-26T14:22:12;102038.97;;;5.66;100.00
29505;BME280;16452;54.174;12.092;2023-01-26T14:24:39;102043.19;;;5.76;100.00
29505;BME280;16452;54.174;12.092;2023-01-26T14:27:30;102042.28;;;5.81;100.00
29505;BME280;16452;54.174;12.092;2023-01-26T14:29:58;102040.50;;;5.84;100.00